sensor_id;sensor_type;location;lat;lon;timestamp;P1;durP1;ratioP1;P2;durP2;ratioP2
55409;SDS011;41279;43.546;16.426;2022-09-09T00:03:47;7.63;;;4.68;;
55409;SDS011;41279;43.546;16.426;2022-09-09T00:06:27;3.50;;;1.30;;
55409;SDS011;41279;43.546;16.426;2022-09-09T00:09:25;1.95;;;1.00;;
55409;SDS011;41279;43.546;16.426;2022-09-09T00:17:35;1.17;;;0.82;;
55409;SDS011;41279;43.546;16.426;2022-09-09T00:20:04;1.38;;;0.68;;
55409;SDS011;41279;43.546;16.426;2022-09-09T00:22:34;1.38;;;0.77;;
55409;SDS011;41279;43.546;16.426;2022-09-09T00:28:25;2.10;;;0.77;;
55409;SDS011;41279;43.546;16.426;2022-09-09T00:30:52;0.88;;;0.55;;
55409;SDS011;41279;43.546;16.426;2022-09-09T00:33:20;2.20;;;0.70;;
55409;SDS011;41279;43.546;16.426;2022-09-09T00:35:49;0.98;;;0.68;;
55409;SDS011;41279;43.546;16.426;2022-09-09T00:38:16;1.20;;;0.60;;
55409;SDS011;41279;43.546;16.426;2022-09-09T00:40:49;1.13;;;0.65;;
55409;SDS011;41279;43.546;16.426;2022-09-09T00:48:37;0.88;;;0.50;;
55409;SDS011;41279;43.546;16.426;2022-09-09T00:51:20;1.35;;;0.70;;
55409;SDS011;41279;43.546;16.426;2022-09-09T00:56:47;1.75;;;0.60;;
55409;SDS011;41279;43.546;16.426;2022-09-09T00:59:28;1.00;;;0.50;;
55409;SDS011;41279;43.546;16.426;2022-09-09T01:02:52;0.60;;;0.52;;
55409;SDS011;41279;43.546;16.426;2022-09-09T01:04:53;1.42;;;0.73;;
55409;SDS011;41279;43.546;16.426;2022-09-09T01:07:19;2.08;;;0.80;;
55409;SDS011;41279;43.546;16.426;2022-09-09T01:12:14;0.95;;;0.70;;
55409;SDS011;41279;43.546;16.426;2022-09-09T01:14:48;1.20;;;0.80;;
55409;SDS011;41279;43.546;16.426;2022-09-09T01:22:14;0.98;;;0.68;;
55409;SDS011;41279;43.546;16.426;2022-09-09T01:27:35;2.05;;;0.70;;
55409;SDS011;41279;43.546;16.426;2022-09-09T01:30:04;0.73;;;0.60;;
55409;SDS011;41279;43.546;16.426;2022-09-09T01:32:44;1.38;;;0.70;;
55409;SDS011;41279;43.546;16.426;2022-09-09T01:38:21;1.02;;;0.68;;
55409;SDS011;41279;43.546;16.426;2022-09-09T01:40:48;1.13;;;0.60;;
55409;SDS011;41279;43.546;16.426;2022-09-09T01:43:17;1.85;;;0.90;;
55409;SDS011;41279;43.546;16.426;2022-09-09T01:45:43;1.25;;;0.77;;
55409;SDS011;41279;43.546;16.426;2022-09-09T01:48:11;1.42;;;0.80;;
55409;SDS011;41279;43.546;16.426;2022-09-09T01:50:37;1.50;;;0.80;;
55409;SDS011;41279;43.546;16.426;2022-09-09T01:53:02;2.20;;;0.95;;
55409;SDS011;41279;43.546;16.426;2022-09-09T01:55:31;2.15;;;1.10;;
55409;SDS011;41279;43.546;16.426;2022-09-09T02:01:04;2.55;;;0.80;;
55409;SDS011;41279;43.546;16.426;2022-09-09T02:03:36;1.70;;;0.90;;
55409;SDS011;41279;43.546;16.426;2022-09-09T02:08:57;1.00;;;0.70;;
55409;SDS011;41279;43.546;16.426;2022-09-09T02:11:26;1.85;;;0.80;;
55409;SDS011;41279;43.546;16.426;2022-09-09T02:13:54;0.65;;;0.65;;
55409;SDS011;41279;43.546;16.426;2022-09-09T02:16:37;10.38;;;1.40;;
55409;SDS011;41279;43.546;16.426;2022-09-09T02:21:34;2.65;;;1.15;;
55409;SDS011;41279;43.546;16.426;2022-09-09T02:24:02;1.50;;;0.90;;
55409;SDS011;41279;43.546;16.426;2022-09-09T02:26:32;2.17;;;1.00;;
55409;SDS011;41279;43.546;16.426;2022-09-09T02:29:01;1.27;;;0.90;;
55409;SDS011;41279;43.546;16.426;2022-09-09T02:31:29;2.00;;;1.00;;
55409;SDS011;41279;43.546;16.426;2022-09-09T02:33:57;2.85;;;1.20;;
55409;SDS011;41279;43.546;16.426;2022-09-09T02:36:26;1.95;;;0.80;;
55409;SDS011;41279;43.546;16.426;2022-09-09T02:38:55;2.95;;;1.20;;
55409;SDS011;41279;43.546;16.426;2022-09-09T02:41:23;1.45;;;0.90;;
55409;SDS011;41279;43.546;16.426;2022-09-09T02:43:52;1.00;;;0.70;;
55409;SDS011;41279;43.546;16.426;2022-09-09T02:59:40;2.75;;;1.20;;
55409;SDS011;41279;43.546;16.426;2022-09-09T03:02:09;2.53;;;1.20;;
55409;SDS011;41279;43.546;16.426;2022-09-09T03:04:35;2.15;;;1.25;;
55409;SDS011;41279;43.546;16.426;2022-09-09T03:07:00;3.38;;;1.40;;
55409;SDS011;41279;43.546;16.426;2022-09-09T03:09:25;2.50;;;1.30;;
55409;SDS011;41279;43.546;16.426;2022-09-09T03:11:51;1.92;;;1.00;;
55409;SDS011;41279;43.546;16.426;2022-09-09T03:14:17;1.52;;;1.00;;
55409;SDS011;41279;43.546;16.426;2022-09-09T03:16:46;3.03;;;1.35;;
55409;SDS011;41279;43.546;16.426;2022-09-09T03:19:12;3.00;;;1.38;;
55409;SDS011;41279;43.546;16.426;2022-09-09T03:21:37;2.38;;;1.13;;
55409;SDS011;41279;43.546;16.426;2022-09-09T03:24:02;2.67;;;1.23;;
55409;SDS011;41279;43.546;16.426;2022-09-09T03:26:28;2.22;;;1.17;;
55409;SDS011;41279;43.546;16.426;2022-09-09T03:28:55;2.08;;;1.08;;
55409;SDS011;41279;43.546;16.426;2022-09-09T03:31:20;2.53;;;1.20;;
55409;SDS011;41279;43.546;16.426;2022-09-09T03:33:46;2.97;;;1.30;;
55409;SDS011;41279;43.546;16.426;2022-09-09T03:36:11;1.83;;;1.00;;
55409;SDS011;41279;43.546;16.426;2022-09-09T03:38:37;1.63;;;1.00;;
55409;SDS011;41279;43.546;16.426;2022-09-09T03:41:02;1.40;;;1.02;;
55409;SDS011;41279;43.546;16.426;2022-09-09T03:43:35;2.33;;;1.20;;
55409;SDS011;41279;43.546;16.426;2022-09-09T03:46:01;2.78;;;1.20;;
55409;SDS011;41279;43.546;16.426;2022-09-09T03:48:27;4.00;;;1.30;;
55409;SDS011;41279;43.546;16.426;2022-09-09T03:50:53;4.07;;;1.33;;
55409;SDS011;41279;43.546;16.426;2022-09-09T03:53:21;2.40;;;1.17;;
55409;SDS011;41279;43.546;16.426;2022-09-09T03:55:48;3.83;;;1.40;;
55409;SDS011;41279;43.546;16.426;2022-09-09T03:58:16;2.22;;;1.10;;
55409;SDS011;41279;43.546;16.426;2022-09-09T04:00:44;3.35;;;1.30;;
55409;SDS011;41279;43.546;16.426;2022-09-09T04:03:25;3.58;;;1.25;;
55409;SDS011;41279;43.546;16.426;2022-09-09T04:05:52;3.42;;;1.10;;
55409;SDS011;41279;43.546;16.426;2022-09-09T04:08:20;4.10;;;1.42;;
55409;SDS011;41279;43.546;16.426;2022-09-09T04:10:46;2.55;;;1.25;;
55409;SDS011;41279;43.546;16.426;2022-09-09T04:13:13;1.50;;;0.98;;
55409;SDS011;41279;43.546;16.426;2022-09-09T04:15:41;0.60;;;0.60;;
55409;SDS011;41279;43.546;16.426;2022-09-09T04:18:07;2.03;;;1.02;;
55409;SDS011;41279;43.546;16.426;2022-09-09T04:20:32;2.15;;;1.10;;
55409;SDS011;41279;43.546;16.426;2022-09-09T04:22:58;2.45;;;1.30;;
55409;SDS011;41279;43.546;16.426;2022-09-09T04:25:24;1.58;;;1.02;;
55409;SDS011;41279;43.546;16.426;2022-09-09T04:27:56;2.67;;;1.20;;
55409;SDS011;41279;43.546;16.426;2022-09-09T04:30:23;3.40;;;1.40;;
55409;SDS011;41279;43.546;16.426;2022-09-09T04:32:49;2.72;;;1.38;;
55409;SDS011;41279;43.546;16.426;2022-09-09T04:35:15;3.50;;;1.33;;
55409;SDS011;41279;43.546;16.426;2022-09-09T04:37:40;3.03;;;1.35;;
55409;SDS011;41279;43.546;16.426;2022-09-09T04:40:06;1.80;;;1.20;;
55409;SDS011;41279;43.546;16.426;2022-09-09T04:42:38;2.42;;;1.52;;
55409;SDS011;41279;43.546;16.426;2022-09-09T04:45:04;3.45;;;1.30;;
55409;SDS011;41279;43.546;16.426;2022-09-09T04:47:31;4.30;;;1.75;;
55409;SDS011;41279;43.546;16.426;2022-09-09T04:49:57;4.25;;;1.67;;
55409;SDS011;41279;43.546;16.426;2022-09-09T04:52:22;2.83;;;1.45;;
55409;SDS011;41279;43.546;16.426;2022-09-09T04:54:48;2.05;;;1.15;;
55409;SDS011;41279;43.546;16.426;2022-09-09T04:57:13;3.15;;;1.50;;
55409;SDS011;41279;43.546;16.426;2022-09-09T04:59:39;3.03;;;1.50;;
55409;SDS011;41279;43.546;16.426;2022-09-09T05:02:04;2.88;;;1.48;;
55409;SDS011;41279;43.546;16.426;2022-09-09T05:04:30;5.43;;;1.25;;
55409;SDS011;41279;43.546;16.426;2022-09-09T05:06:56;2.00;;;1.10;;
55409;SDS011;41279;43.546;16.426;2022-09-09T05:09:22;4.22;;;1.40;;
55409;SDS011;41279;43.546;16.426;2022-09-09T05:11:47;1.95;;;1.35;;
55409;SDS011;41279;43.546;16.426;2022-09-09T05:14:12;2.28;;;1.30;;
55409;SDS011;41279;43.546;16.426;2022-09-09T05:16:39;2.60;;;1.25;;
55409;SDS011;41279;43.546;16.426;2022-09-09T05:19:04;3.97;;;1.50;;
55409;SDS011;41279;43.546;16.426;2022-09-09T05:21:31;6.32;;;1.23;;
55409;SDS011;41279;43.546;16.426;2022-09-09T05:23:56;6.57;;;1.88;;
55409;SDS011;41279;43.546;16.426;2022-09-09T05:26:22;7.03;;;1.73;;
55409;SDS011;41279;43.546;16.426;2022-09-09T05:28:48;4.30;;;1.60;;
55409;SDS011;41279;43.546;16.426;2022-09-09T05:31:14;3.80;;;1.30;;
55409;SDS011;41279;43.546;16.426;2022-09-09T05:33:41;1.92;;;1.10;;
55409;SDS011;41279;43.546;16.426;2022-09-09T05:38:40;2.92;;;1.27;;
55409;SDS011;41279;43.546;16.426;2022-09-09T05:41:06;4.15;;;1.27;;
55409;SDS011;41279;43.546;16.426;2022-09-09T05:43:32;2.30;;;1.27;;
55409;SDS011;41279;43.546;16.426;2022-09-09T05:46:10;5.78;;;1.55;;
55409;SDS011;41279;43.546;16.426;2022-09-09T05:48:39;2.28;;;1.30;;
55409;SDS011;41279;43.546;16.426;2022-09-09T05:51:06;3.83;;;1.80;;
55409;SDS011;41279;43.546;16.426;2022-09-09T05:53:34;5.80;;;2.08;;
55409;SDS011;41279;43.546;16.426;2022-09-09T05:56:00;5.82;;;2.10;;
55409;SDS011;41279;43.546;16.426;2022-09-09T05:58:25;5.68;;;2.28;;
55409;SDS011;41279;43.546;16.426;2022-09-09T06:00:50;4.68;;;2.03;;
55409;SDS011;41279;43.546;16.426;2022-09-09T06:03:16;3.92;;;1.60;;
55409;SDS011;41279;43.546;16.426;2022-09-09T06:05:42;3.58;;;1.70;;
55409;SDS011;41279;43.546;16.426;2022-09-09T06:08:07;6.88;;;4.55;;
55409;SDS011;41279;43.546;16.426;2022-09-09T06:10:32;6.47;;;2.25;;
55409;SDS011;41279;43.546;16.426;2022-09-09T06:12:59;6.20;;;2.17;;
55409;SDS011;41279;43.546;16.426;2022-09-09T06:15:24;3.13;;;1.40;;
55409;SDS011;41279;43.546;16.426;2022-09-09T06:17:56;3.95;;;1.60;;
55409;SDS011;41279;43.546;16.426;2022-09-09T06:20:21;5.35;;;1.38;;
55409;SDS011;41279;43.546;16.426;2022-09-09T06:22:47;3.58;;;1.50;;
55409;SDS011;41279;43.546;16.426;2022-09-09T06:25:13;5.05;;;1.70;;
55409;SDS011;41279;43.546;16.426;2022-09-09T06:27:39;3.95;;;1.52;;
55409;SDS011;41279;43.546;16.426;2022-09-09T06:30:05;6.68;;;1.55;;
55409;SDS011;41279;43.546;16.426;2022-09-09T06:32:32;6.85;;;1.45;;
55409;SDS011;41279;43.546;16.426;2022-09-09T06:34:59;4.25;;;1.48;;
55409;SDS011;41279;43.546;16.426;2022-09-09T06:37:26;5.53;;;1.40;;
55409;SDS011;41279;43.546;16.426;2022-09-09T06:39:51;6.13;;;2.35;;
55409;SDS011;41279;43.546;16.426;2022-09-09T06:42:17;8.60;;;2.33;;
55409;SDS011;41279;43.546;16.426;2022-09-09T06:44:42;8.00;;;2.40;;
55409;SDS011;41279;43.546;16.426;2022-09-09T06:47:08;4.82;;;1.98;;
55409;SDS011;41279;43.546;16.426;2022-09-09T06:49:33;7.15;;;2.88;;
55409;SDS011;41279;43.546;16.426;2022-09-09T06:51:59;7.63;;;2.47;;
55409;SDS011;41279;43.546;16.426;2022-09-09T06:54:25;7.93;;;2.72;;
55409;SDS011;41279;43.546;16.426;2022-09-09T06:56:50;6.68;;;2.65;;
55409;SDS011;41279;43.546;16.426;2022-09-09T06:59:16;8.43;;;2.75;;
55409;SDS011;41279;43.546;16.426;2022-09-09T07:01:42;6.03;;;2.50;;
55409;SDS011;41279;43.546;16.426;2022-09-09T07:04:09;6.03;;;2.00;;
55409;SDS011;41279;43.546;16.426;2022-09-09T07:06:38;5.45;;;1.80;;
55409;SDS011;41279;43.546;16.426;2022-09-09T07:09:06;5.63;;;2.15;;
55409;SDS011;41279;43.546;16.426;2022-09-09T07:11:46;4.88;;;1.60;;
55409;SDS011;41279;43.546;16.426;2022-09-09T07:14:19;5.35;;;1.88;;
55409;SDS011;41279;43.546;16.426;2022-09-09T07:16:44;4.43;;;1.85;;
55409;SDS011;41279;43.546;16.426;2022-09-09T07:19:11;3.17;;;1.40;;
55409;SDS011;41279;43.546;16.426;2022-09-09T07:21:37;5.50;;;1.70;;
55409;SDS011;41279;43.546;16.426;2022-09-09T07:24:04;4.68;;;1.60;;
55409;SDS011;41279;43.546;16.426;2022-09-09T07:26:32;2.72;;;1.40;;
55409;SDS011;41279;43.546;16.426;2022-09-09T07:28:58;5.07;;;1.70;;
55409;SDS011;41279;43.546;16.426;2022-09-09T07:31:25;4.28;;;1.30;;
55409;SDS011;41279;43.546;16.426;2022-09-09T07:33:55;2.42;;;1.40;;
55409;SDS011;41279;43.546;16.426;2022-09-09T07:36:22;2.50;;;1.35;;
55409;SDS011;41279;43.546;16.426;2022-09-09T07:38:50;6.70;;;1.45;;
55409;SDS011;41279;43.546;16.426;2022-09-09T07:41:21;5.00;;;1.50;;
55409;SDS011;41279;43.546;16.426;2022-09-09T07:43:52;6.40;;;1.60;;
55409;SDS011;41279;43.546;16.426;2022-09-09T07:46:23;4.35;;;1.70;;
55409;SDS011;41279;43.546;16.426;2022-09-09T07:48:54;3.85;;;1.60;;
55409;SDS011;41279;43.546;16.426;2022-09-09T07:51:31;3.97;;;1.80;;
55409;SDS011;41279;43.546;16.426;2022-09-09T07:53:59;3.92;;;1.30;;
55409;SDS011;41279;43.546;16.426;2022-09-09T07:56:27;2.88;;;1.30;;
55409;SDS011;41279;43.546;16.426;2022-09-09T07:58:54;4.43;;;1.33;;
55409;SDS011;41279;43.546;16.426;2022-09-09T08:01:25;3.38;;;1.40;;
55409;SDS011;41279;43.546;16.426;2022-09-09T08:04:02;3.78;;;1.52;;
55409;SDS011;41279;43.546;16.426;2022-09-09T08:06:30;2.67;;;1.30;;
55409;SDS011;41279;43.546;16.426;2022-09-09T08:08:58;3.80;;;1.52;;
55409;SDS011;41279;43.546;16.426;2022-09-09T08:11:25;5.80;;;1.88;;
55409;SDS011;41279;43.546;16.426;2022-09-09T08:13:53;3.03;;;1.20;;
55409;SDS011;41279;43.546;16.426;2022-09-09T08:16:21;3.83;;;1.45;;
55409;SDS011;41279;43.546;16.426;2022-09-09T08:18:49;7.57;;;1.90;;
55409;SDS011;41279;43.546;16.426;2022-09-09T08:21:16;4.70;;;1.80;;
55409;SDS011;41279;43.546;16.426;2022-09-09T08:23:43;3.90;;;1.80;;
55409;SDS011;41279;43.546;16.426;2022-09-09T08:26:11;7.28;;;1.70;;
55409;SDS011;41279;43.546;16.426;2022-09-09T08:28:42;2.67;;;1.40;;
55409;SDS011;41279;43.546;16.426;2022-09-09T08:31:12;4.22;;;1.40;;
55409;SDS011;41279;43.546;16.426;2022-09-09T08:33:41;3.27;;;1.50;;
55409;SDS011;41279;43.546;16.426;2022-09-09T08:36:09;6.00;;;1.52;;
55409;SDS011;41279;43.546;16.426;2022-09-09T08:38:36;3.28;;;1.40;;
55409;SDS011;41279;43.546;16.426;2022-09-09T08:43:40;3.72;;;1.52;;
55409;SDS011;41279;43.546;16.426;2022-09-09T08:46:16;4.10;;;1.80;;
55409;SDS011;41279;43.546;16.426;2022-09-09T08:51:50;3.08;;;1.50;;
55409;SDS011;41279;43.546;16.426;2022-09-09T08:54:20;5.03;;;1.48;;
55409;SDS011;41279;43.546;16.426;2022-09-09T08:56:46;4.32;;;1.58;;
55409;SDS011;41279;43.546;16.426;2022-09-09T08:59:13;3.50;;;1.40;;
55409;SDS011;41279;43.546;16.426;2022-09-09T09:04:22;2.97;;;1.42;;
55409;SDS011;41279;43.546;16.426;2022-09-09T09:12:43;3.53;;;1.70;;
55409;SDS011;41279;43.546;16.426;2022-09-09T09:15:11;6.65;;;1.90;;
55409;SDS011;41279;43.546;16.426;2022-09-09T09:17:43;3.45;;;1.70;;
55409;SDS011;41279;43.546;16.426;2022-09-09T09:20:12;5.80;;;1.90;;
55409;SDS011;41279;43.546;16.426;2022-09-09T09:22:45;3.28;;;1.75;;
55409;SDS011;41279;43.546;16.426;2022-09-09T09:25:18;5.97;;;2.25;;
55409;SDS011;41279;43.546;16.426;2022-09-09T09:28:07;5.28;;;1.80;;
55409;SDS011;41279;43.546;16.426;2022-09-09T09:36:06;4.15;;;1.80;;
55409;SDS011;41279;43.546;16.426;2022-09-09T09:38:33;5.18;;;2.05;;
55409;SDS011;41279;43.546;16.426;2022-09-09T09:40:59;4.40;;;1.90;;
55409;SDS011;41279;43.546;16.426;2022-09-09T09:43:29;4.78;;;1.80;;
55409;SDS011;41279;43.546;16.426;2022-09-09T09:45:59;8.05;;;2.35;;
55409;SDS011;41279;43.546;16.426;2022-09-09T09:48:25;5.57;;;2.20;;
55409;SDS011;41279;43.546;16.426;2022-09-09T09:51:09;4.95;;;1.80;;
55409;SDS011;41279;43.546;16.426;2022-09-09T09:53:40;4.70;;;1.77;;
55409;SDS011;41279;43.546;16.426;2022-09-09T09:56:06;3.55;;;1.77;;
55409;SDS011;41279;43.546;16.426;2022-09-09T10:01:22;5.28;;;1.98;;
55409;SDS011;41279;43.546;16.426;2022-09-09T10:03:53;4.68;;;1.88;;
55409;SDS011;41279;43.546;16.426;2022-09-09T10:06:32;5.03;;;1.98;;
55409;SDS011;41279;43.546;16.426;2022-09-09T10:08:59;5.85;;;2.33;;
55409;SDS011;41279;43.546;16.426;2022-09-09T10:11:30;6.00;;;1.92;;
55409;SDS011;41279;43.546;16.426;2022-09-09T10:17:01;6.18;;;1.80;;
55409;SDS011;41279;43.546;16.426;2022-09-09T10:19:50;4.28;;;1.77;;
55409;SDS011;41279;43.546;16.426;2022-09-09T10:22:44;4.63;;;2.00;;
55409;SDS011;41279;43.546;16.426;2022-09-09T10:30:43;5.05;;;1.80;;
55409;SDS011;41279;43.546;16.426;2022-09-09T10:41:15;4.72;;;1.70;;
55409;SDS011;41279;43.546;16.426;2022-09-09T10:49:20;5.22;;;2.05;;
55409;SDS011;41279;43.546;16.426;2022-09-09T10:54:53;4.03;;;1.85;;
55409;SDS011;41279;43.546;16.426;2022-09-09T10:57:37;5.22;;;1.80;;
55409;SDS011;41279;43.546;16.426;2022-09-09T11:00:10;5.10;;;1.92;;
55409;SDS011;41279;43.546;16.426;2022-09-09T11:02:39;5.13;;;2.00;;
55409;SDS011;41279;43.546;16.426;2022-09-09T11:07:42;6.05;;;2.33;;
55409;SDS011;41279;43.546;16.426;2022-09-09T11:10:18;3.95;;;1.90;;
55409;SDS011;41279;43.546;16.426;2022-09-09T11:12:50;3.85;;;1.67;;
55409;SDS011;41279;43.546;16.426;2022-09-09T11:15:20;5.40;;;2.00;;
55409;SDS011;41279;43.546;16.426;2022-09-09T11:17:53;4.32;;;1.92;;
55409;SDS011;41279;43.546;16.426;2022-09-09T11:20:23;5.13;;;2.00;;
55409;SDS011;41279;43.546;16.426;2022-09-09T11:23:04;4.65;;;2.00;;
55409;SDS011;41279;43.546;16.426;2022-09-09T11:25:41;5.13;;;1.98;;
55409;SDS011;41279;43.546;16.426;2022-09-09T11:28:23;3.80;;;1.80;;
55409;SDS011;41279;43.546;16.426;2022-09-09T11:38:50;4.72;;;2.30;;
55409;SDS011;41279;43.546;16.426;2022-09-09T11:41:16;4.82;;;2.17;;
55409;SDS011;41279;43.546;16.426;2022-09-09T11:46:11;5.03;;;1.95;;
55409;SDS011;41279;43.546;16.426;2022-09-09T11:48:41;4.13;;;2.15;;
55409;SDS011;41279;43.546;16.426;2022-09-09T11:56:25;4.72;;;2.25;;
55409;SDS011;41279;43.546;16.426;2022-09-09T12:04:05;4.95;;;2.65;;
55409;SDS011;41279;43.546;16.426;2022-09-09T12:06:48;7.32;;;2.83;;
55409;SDS011;41279;43.546;16.426;2022-09-09T12:09:21;6.75;;;3.13;;
55409;SDS011;41279;43.546;16.426;2022-09-09T12:12:04;6.25;;;2.90;;
55409;SDS011;41279;43.546;16.426;2022-09-09T12:17:25;7.30;;;3.05;;
55409;SDS011;41279;43.546;16.426;2022-09-09T12:34:02;5.47;;;2.97;;
55409;SDS011;41279;43.546;16.426;2022-09-09T12:36:51;6.50;;;3.08;;
55409;SDS011;41279;43.546;16.426;2022-09-09T12:39:28;6.88;;;3.33;;
55409;SDS011;41279;43.546;16.426;2022-09-09T12:41:58;8.25;;;2.85;;
55409;SDS011;41279;43.546;16.426;2022-09-09T12:44:24;10.30;;;3.75;;
55409;SDS011;41279;43.546;16.426;2022-09-09T12:46:53;6.70;;;3.42;;
55409;SDS011;41279;43.546;16.426;2022-09-09T12:51:48;10.45;;;3.10;;
55409;SDS011;41279;43.546;16.426;2022-09-09T12:54:14;7.90;;;3.55;;
55409;SDS011;41279;43.546;16.426;2022-09-09T12:56:40;7.43;;;3.25;;
55409;SDS011;41279;43.546;16.426;2022-09-09T12:59:34;7.00;;;3.17;;
55409;SDS011;41279;43.546;16.426;2022-09-09T13:02:02;7.35;;;3.13;;
55409;SDS011;41279;43.546;16.426;2022-09-09T13:04:27;6.82;;;3.47;;
55409;SDS011;41279;43.546;16.426;2022-09-09T13:06:52;8.55;;;4.07;;
55409;SDS011;41279;43.546;16.426;2022-09-09T13:09:18;8.13;;;3.50;;
55409;SDS011;41279;43.546;16.426;2022-09-09T13:11:53;7.10;;;3.25;;
55409;SDS011;41279;43.546;16.426;2022-09-09T13:14:28;9.63;;;3.60;;
55409;SDS011;41279;43.546;16.426;2022-09-09T13:16:58;7.03;;;3.20;;
55409;SDS011;41279;43.546;16.426;2022-09-09T13:19:25;7.07;;;3.50;;
55409;SDS011;41279;43.546;16.426;2022-09-09T13:21:54;8.10;;;3.28;;
55409;SDS011;41279;43.546;16.426;2022-09-09T13:24:27;6.57;;;3.53;;
55409;SDS011;41279;43.546;16.426;2022-09-09T13:27:01;6.43;;;3.17;;
55409;SDS011;41279;43.546;16.426;2022-09-09T13:29:29;5.57;;;2.90;;
55409;SDS011;41279;43.546;16.426;2022-09-09T13:34:56;6.75;;;3.00;;
55409;SDS011;41279;43.546;16.426;2022-09-09T13:37:33;7.43;;;3.30;;
55409;SDS011;41279;43.546;16.426;2022-09-09T13:40:02;8.00;;;3.40;;
55409;SDS011;41279;43.546;16.426;2022-09-09T13:42:31;9.48;;;3.40;;
55409;SDS011;41279;43.546;16.426;2022-09-09T13:45:00;7.88;;;3.33;;
55409;SDS011;41279;43.546;16.426;2022-09-09T13:47:31;7.88;;;3.28;;
55409;SDS011;41279;43.546;16.426;2022-09-09T13:50:09;10.50;;;3.45;;
55409;SDS011;41279;43.546;16.426;2022-09-09T13:52:45;5.80;;;3.10;;
55409;SDS011;41279;43.546;16.426;2022-09-09T13:55:12;9.43;;;3.60;;
55409;SDS011;41279;43.546;16.426;2022-09-09T13:57:38;8.32;;;3.88;;
55409;SDS011;41279;43.546;16.426;2022-09-09T14:00:03;9.20;;;3.35;;
55409;SDS011;41279;43.546;16.426;2022-09-09T14:02:29;8.48;;;3.40;;
55409;SDS011;41279;43.546;16.426;2022-09-09T14:04:56;6.50;;;3.25;;
55409;SDS011;41279;43.546;16.426;2022-09-09T14:07:21;7.43;;;3.05;;
55409;SDS011;41279;43.546;16.426;2022-09-09T14:09:47;7.80;;;3.05;;
55409;SDS011;41279;43.546;16.426;2022-09-09T14:12:14;9.23;;;3.40;;
55409;SDS011;41279;43.546;16.426;2022-09-09T14:14:41;8.02;;;3.38;;
55409;SDS011;41279;43.546;16.426;2022-09-09T14:17:09;7.93;;;3.30;;
55409;SDS011;41279;43.546;16.426;2022-09-09T14:19:35;10.48;;;3.40;;
55409;SDS011;41279;43.546;16.426;2022-09-09T14:22:02;7.68;;;3.28;;
55409;SDS011;41279;43.546;16.426;2022-09-09T14:24:27;9.75;;;3.80;;
55409;SDS011;41279;43.546;16.426;2022-09-09T14:26:53;6.90;;;3.38;;
55409;SDS011;41279;43.546;16.426;2022-09-09T14:29:19;10.70;;;3.67;;
55409;SDS011;41279;43.546;16.426;2022-09-09T14:31:44;9.38;;;3.63;;
55409;SDS011;41279;43.546;16.426;2022-09-09T14:34:10;8.48;;;3.75;;
55409;SDS011;41279;43.546;16.426;2022-09-09T14:36:36;8.38;;;4.18;;
55409;SDS011;41279;43.546;16.426;2022-09-09T14:39:02;9.35;;;4.03;;
55409;SDS011;41279;43.546;16.426;2022-09-09T14:41:28;9.82;;;3.85;;
55409;SDS011;41279;43.546;16.426;2022-09-09T14:43:54;7.18;;;3.60;;
55409;SDS011;41279;43.546;16.426;2022-09-09T14:46:19;10.15;;;3.70;;
55409;SDS011;41279;43.546;16.426;2022-09-09T14:48:45;9.43;;;4.07;;
55409;SDS011;41279;43.546;16.426;2022-09-09T14:51:17;10.50;;;4.47;;
55409;SDS011;41279;43.546;16.426;2022-09-09T14:53:45;9.60;;;3.58;;
55409;SDS011;41279;43.546;16.426;2022-09-09T14:56:15;10.38;;;4.15;;
55409;SDS011;41279;43.546;16.426;2022-09-09T14:58:42;9.90;;;4.00;;
55409;SDS011;41279;43.546;16.426;2022-09-09T15:01:09;8.50;;;3.70;;
55409;SDS011;41279;43.546;16.426;2022-09-09T15:03:39;11.50;;;4.25;;
55409;SDS011;41279;43.546;16.426;2022-09-09T15:06:08;7.28;;;4.00;;
55409;SDS011;41279;43.546;16.426;2022-09-09T15:08:39;12.00;;;4.30;;
55409;SDS011;41279;43.546;16.426;2022-09-09T15:11:06;7.95;;;3.75;;
55409;SDS011;41279;43.546;16.426;2022-09-09T15:13:32;9.70;;;4.30;;
55409;SDS011;41279;43.546;16.426;2022-09-09T15:16:06;8.75;;;3.75;;
55409;SDS011;41279;43.546;16.426;2022-09-09T15:18:41;10.93;;;4.20;;
55409;SDS011;41279;43.546;16.426;2022-09-09T15:21:11;9.35;;;4.00;;
55409;SDS011;41279;43.546;16.426;2022-09-09T15:23:37;9.68;;;3.90;;
55409;SDS011;41279;43.546;16.426;2022-09-09T15:26:03;10.60;;;4.47;;
55409;SDS011;41279;43.546;16.426;2022-09-09T15:28:30;10.73;;;3.42;;
55409;SDS011;41279;43.546;16.426;2022-09-09T15:31:05;7.97;;;3.88;;
55409;SDS011;41279;43.546;16.426;2022-09-09T15:33:32;11.05;;;4.38;;
55409;SDS011;41279;43.546;16.426;2022-09-09T15:35:59;11.63;;;4.13;;
55409;SDS011;41279;43.546;16.426;2022-09-09T15:38:24;8.50;;;3.65;;
55409;SDS011;41279;43.546;16.426;2022-09-09T15:40:56;10.38;;;3.95;;
55409;SDS011;41279;43.546;16.426;2022-09-09T15:43:22;8.98;;;3.85;;
55409;SDS011;41279;43.546;16.426;2022-09-09T15:45:49;9.25;;;3.85;;
55409;SDS011;41279;43.546;16.426;2022-09-09T15:48:19;10.35;;;3.75;;
55409;SDS011;41279;43.546;16.426;2022-09-09T15:51:01;9.85;;;3.65;;
55409;SDS011;41279;43.546;16.426;2022-09-09T15:53:30;8.20;;;4.20;;
55409;SDS011;41279;43.546;16.426;2022-09-09T15:55:57;9.48;;;3.65;;
55409;SDS011;41279;43.546;16.426;2022-09-09T15:58:32;8.48;;;3.47;;
55409;SDS011;41279;43.546;16.426;2022-09-09T16:01:05;11.93;;;4.07;;
55409;SDS011;41279;43.546;16.426;2022-09-09T16:03:35;8.52;;;3.53;;
55409;SDS011;41279;43.546;16.426;2022-09-09T16:06:04;11.82;;;3.83;;
55409;SDS011;41279;43.546;16.426;2022-09-09T16:08:41;9.15;;;3.55;;
55409;SDS011;41279;43.546;16.426;2022-09-09T16:11:09;10.27;;;3.85;;
55409;SDS011;41279;43.546;16.426;2022-09-09T16:13:37;9.02;;;3.30;;
55409;SDS011;41279;43.546;16.426;2022-09-09T16:16:06;9.90;;;3.78;;
55409;SDS011;41279;43.546;16.426;2022-09-09T16:21:02;8.60;;;2.92;;
55409;SDS011;41279;43.546;16.426;2022-09-09T16:23:28;11.48;;;3.17;;
55409;SDS011;41279;43.546;16.426;2022-09-09T16:25:54;11.57;;;3.63;;
55409;SDS011;41279;43.546;16.426;2022-09-09T16:28:20;7.85;;;3.50;;
55409;SDS011;41279;43.546;16.426;2022-09-09T16:30:45;10.00;;;2.83;;
55409;SDS011;41279;43.546;16.426;2022-09-09T16:33:11;11.98;;;3.47;;
55409;SDS011;41279;43.546;16.426;2022-09-09T16:35:36;7.82;;;3.10;;
55409;SDS011;41279;43.546;16.426;2022-09-09T16:38:03;7.05;;;3.22;;
55409;SDS011;41279;43.546;16.426;2022-09-09T16:40:29;7.65;;;3.05;;
55409;SDS011;41279;43.546;16.426;2022-09-09T16:42:55;8.25;;;3.00;;
55409;SDS011;41279;43.546;16.426;2022-09-09T16:45:22;11.77;;;3.20;;
55409;SDS011;41279;43.546;16.426;2022-09-09T16:47:48;8.15;;;3.00;;
55409;SDS011;41279;43.546;16.426;2022-09-09T16:50:13;8.77;;;3.00;;
55409;SDS011;41279;43.546;16.426;2022-09-09T16:52:39;9.63;;;3.15;;
55409;SDS011;41279;43.546;16.426;2022-09-09T16:55:04;11.10;;;3.20;;
55409;SDS011;41279;43.546;16.426;2022-09-09T16:57:30;10.65;;;3.15;;
55409;SDS011;41279;43.546;16.426;2022-09-09T16:59:55;6.20;;;2.95;;
55409;SDS011;41279;43.546;16.426;2022-09-09T17:02:24;7.90;;;2.85;;
55409;SDS011;41279;43.546;16.426;2022-09-09T17:04:49;9.90;;;3.00;;
55409;SDS011;41279;43.546;16.426;2022-09-09T17:07:15;8.27;;;3.13;;
55409;SDS011;41279;43.546;16.426;2022-09-09T17:09:41;6.15;;;3.38;;
55409;SDS011;41279;43.546;16.426;2022-09-09T17:12:07;7.47;;;2.85;;
55409;SDS011;41279;43.546;16.426;2022-09-09T17:14:33;10.43;;;3.15;;
55409;SDS011;41279;43.546;16.426;2022-09-09T17:16:58;8.13;;;3.72;;